createdAt,value
2023-12-13T05:00:37.214Z,7.12
2023-12-13T05:03:43.731Z,6.25
2023-12-13T05:06:47.718Z,7.05
2023-12-13T05:13:55.867Z,6.55
2023-12-13T05:17:44.242Z,7.07
2023-12-13T05:46:07.298Z,6.75
2023-12-13T05:49:13.292Z,6.35
2023-12-13T05:52:16.462Z,6.12
2023-12-13T05:55:19.956Z,7.03
2023-12-13T05:58:23.015Z,5.25
2023-12-13T06:01:32.637Z,5.82
2023-12-13T06:04:36.357Z,5.93
2023-12-13T06:07:39.470Z,6.28
2023-12-13T06:10:43.691Z,6.28
2023-12-13T06:14:02.437Z,5.65
2023-12-13T06:17:05.755Z,5.75
2023-12-13T06:20:09.352Z,5.82
2023-12-13T06:23:12.450Z,5.45
2023-12-13T06:26:15.182Z,5.95
2023-12-13T06:29:21.426Z,6.07
2023-12-13T06:32:24.452Z,5.80
2023-12-13T06:35:27.713Z,5.80
2023-12-13T06:38:30.543Z,5.68
2023-12-13T06:41:33.966Z,5.97
2023-12-13T06:44:38.341Z,5.68
2023-12-13T06:47:41.555Z,5.55
2023-12-13T06:50:44.508Z,5.37
2023-12-13T06:53:47.853Z,4.65
2023-12-13T06:56:50.552Z,5.35
2023-12-13T06:59:53.781Z,5.28
2023-12-13T07:02:56.772Z,5.68
2023-12-13T07:06:00.227Z,6.00
2023-12-13T07:09:03.847Z,6.22
2023-12-13T07:12:07.231Z,5.32
2023-12-13T07:15:12.469Z,5.80
2023-12-13T07:18:19.433Z,5.18
2023-12-13T07:21:22.619Z,4.93
2023-12-13T07:24:25.630Z,5.68
2023-12-13T07:27:28.989Z,4.43
2023-12-13T07:30:32.405Z,4.80
2023-12-13T07:33:39.930Z,4.62
2023-12-13T07:36:49.745Z,4.20
2023-12-13T07:39:52.979Z,4.70
2023-12-13T07:42:58.167Z,4.80
2023-12-13T07:46:01.246Z,4.25
2023-12-13T07:49:04.888Z,4.47
2023-12-13T07:52:08.337Z,4.07
2023-12-13T07:55:11.404Z,4.15
2023-12-13T07:58:16.457Z,4.43
2023-12-13T08:01:19.706Z,3.85
2023-12-13T08:04:23.242Z,3.55
2023-12-13T08:07:26.272Z,4.53
2023-12-13T08:10:29.516Z,4.45
2023-12-13T08:13:32.640Z,4.62
2023-12-13T08:16:35.781Z,3.87
2023-12-13T08:19:39.379Z,4.00
2023-12-13T08:22:42.640Z,4.75
2023-12-13T08:25:45.650Z,5.50
2023-12-13T08:28:55.649Z,5.45
2023-12-13T08:32:05.757Z,5.70
2023-12-13T08:35:08.952Z,5.20
2023-12-13T08:38:11.957Z,5.25
2023-12-13T08:41:16.294Z,5.03
2023-12-13T08:44:20.562Z,5.18
2023-12-13T08:47:24.927Z,4.43
2023-12-13T08:50:29.846Z,4.40
2023-12-13T08:53:33.304Z,4.18
2023-12-13T08:56:36.577Z,3.58
2023-12-13T08:59:39.836Z,4.60
2023-12-13T09:02:42.618Z,3.65
2023-12-13T09:05:47.198Z,4.15
2023-12-13T09:08:50.175Z,4.78
2023-12-13T09:11:53.569Z,4.55
2023-12-13T09:15:07.592Z,4.75
2023-12-13T09:18:11.359Z,4.53
2023-12-13T09:21:15.380Z,5.55
2023-12-13T09:24:18.967Z,5.65
2023-12-13T09:27:24.192Z,5.85
2023-12-13T09:30:27.573Z,5.32
2023-12-13T09:33:31.777Z,5.37
2023-12-13T09:36:35.631Z,5.32
2023-12-13T09:39:41.304Z,4.40
2023-12-13T09:42:46.877Z,4.60
2023-12-13T09:45:55.133Z,4.40
2023-12-13T09:48:58.736Z,4.60
2023-12-13T09:52:07.604Z,4.10
2023-12-13T09:55:14.361Z,4.78
2023-12-13T09:58:17.025Z,5.18
2023-12-13T10:01:20.359Z,4.70
2023-12-13T10:04:29.834Z,5.05
2023-12-13T10:07:33.073Z,5.10
2023-12-13T10:10:38.781Z,4.53
2023-12-13T10:13:41.591Z,4.35
2023-12-13T10:16:45.661Z,4.78
2023-12-13T10:19:49.454Z,4.95
2023-12-13T10:22:52.555Z,4.30
2023-12-13T10:25:55.853Z,4.37
2023-12-13T10:29:01.475Z,4.30
2023-12-13T10:32:04.742Z,5.20
2023-12-13T10:35:10.506Z,5.20
2023-12-13T10:38:15.367Z,6.28
2023-12-13T10:41:18.814Z,7.68
2023-12-13T10:44:24.233Z,6.22
2023-12-13T10:47:28.454Z,6.10
2023-12-13T10:50:32.454Z,7.07
2023-12-13T10:53:37.213Z,6.22
2023-12-13T10:56:42.300Z,6.80
2023-12-13T10:59:46.817Z,6.30
2023-12-13T11:02:54.858Z,6.60
2023-12-13T11:05:57.796Z,4.80
2023-12-13T11:09:15.109Z,5.50
2023-12-13T11:12:20.069Z,4.80
2023-12-13T11:15:23.077Z,4.45
2023-12-13T11:18:26.843Z,4.12
2023-12-13T11:21:32.448Z,4.47
2023-12-13T11:24:37.775Z,4.90
2023-12-13T11:27:54.707Z,5.65
2023-12-13T11:30:59.953Z,5.00
2023-12-13T11:34:06.478Z,5.32
2023-12-13T11:37:12.567Z,6.12
2023-12-13T11:40:16.942Z,5.72
2023-12-13T11:43:20.412Z,5.50
2023-12-13T11:46:23.404Z,5.32
2023-12-13T11:49:27.446Z,4.75
2023-12-13T11:52:30.419Z,5.20
2023-12-13T11:55:33.575Z,5.90
2023-12-13T11:58:36.966Z,5.55
2023-12-13T12:01:41.480Z,7.18
2023-12-13T12:04:46.144Z,5.80
2023-12-13T12:08:07.805Z,7.07
2023-12-13T12:11:14.316Z,6.10
2023-12-13T12:14:17.317Z,6.68
2023-12-13T12:17:20.909Z,6.82
2023-12-13T12:20:25.498Z,5.90
2023-12-13T12:23:31.790Z,6.03
2023-12-13T12:26:34.637Z,6.60
2023-12-13T12:29:42.657Z,6.30
2023-12-13T12:32:46.317Z,5.47
2023-12-13T12:35:49.656Z,5.75
2023-12-13T12:38:55.615Z,5.18
2023-12-13T12:41:58.644Z,5.20
2023-12-13T12:45:01.662Z,5.65
2023-12-13T12:48:04.886Z,5.57
2023-12-13T12:51:07.688Z,6.00
2023-12-13T12:54:10.963Z,6.22
2023-12-13T12:57:14.143Z,5.72
2023-12-13T13:00:19.734Z,7.12
2023-12-13T13:03:22.922Z,5.75
2023-12-13T13:06:26.405Z,7.45
2023-12-13T13:09:31.363Z,6.68
2023-12-13T13:12:40.235Z,6.27
2023-12-13T13:15:43.557Z,7.93
2023-12-13T13:18:48.717Z,7.15
2023-12-13T13:21:52.526Z,7.47
2023-12-13T13:24:55.890Z,7.57
2023-12-13T13:27:58.550Z,8.02
2023-12-13T13:31:01.879Z,8.77
2023-12-13T13:34:04.801Z,9.13
2023-12-13T13:37:07.996Z,7.85
2023-12-13T13:40:11.393Z,8.45
2023-12-13T13:43:14.468Z,8.82
2023-12-13T13:46:17.865Z,8.82
2023-12-13T13:49:21.277Z,7.82
2023-12-13T13:52:24.247Z,12.95
2023-12-13T13:55:27.579Z,12.63
2023-12-13T13:58:30.871Z,16.77
2023-12-13T14:01:34.113Z,16.33
2023-12-13T14:04:37.462Z,16.00
2023-12-13T14:07:40.722Z,15.38
2023-12-13T14:10:44.849Z,14.77
2023-12-13T14:13:48.532Z,12.93
2023-12-13T14:16:51.587Z,12.00
2023-12-13T14:19:54.247Z,12.73
2023-12-13T14:22:57.164Z,13.02
2023-12-13T14:25:59.895Z,12.15
2023-12-13T14:29:04.780Z,11.50
2023-12-13T14:32:08.575Z,11.68
2023-12-13T14:35:12.514Z,9.60
2023-12-13T14:38:16.773Z,8.77
2023-12-13T14:41:20.162Z,8.13
2023-12-13T14:44:23.588Z,8.85
2023-12-13T14:47:26.600Z,8.75
2023-12-13T14:50:29.282Z,9.10
2023-12-13T14:53:32.618Z,10.13
2023-12-13T14:56:37.344Z,9.13
2023-12-13T14:59:41.517Z,9.02
2023-12-13T15:02:45.377Z,8.20
2023-12-13T15:05:48.746Z,10.43
2023-12-13T15:08:51.721Z,9.10
2023-12-13T15:11:54.812Z,9.23
2023-12-13T15:14:57.590Z,10.20
2023-12-13T15:18:00.658Z,9.77
2023-12-13T15:21:03.884Z,10.32
2023-12-13T15:24:07.676Z,8.70
2023-12-13T15:27:15.158Z,8.07
2023-12-13T15:30:18.119Z,9.00
2023-12-13T15:33:21.136Z,8.95
2023-12-13T15:36:24.520Z,8.10
2023-12-13T15:39:27.164Z,8.48
2023-12-13T15:42:30.166Z,7.90
2023-12-13T15:45:32.764Z,9.90
2023-12-13T15:48:35.943Z,9.23
2023-12-13T15:51:38.932Z,8.65
2023-12-13T15:54:47.223Z,9.32
2023-12-13T15:57:50.172Z,8.98
2023-12-13T16:00:53.431Z,9.18
2023-12-13T16:03:58.380Z,10.15
2023-12-13T16:07:01.895Z,9.65
2023-12-13T16:10:05.353Z,9.00
2023-12-13T16:13:08.394Z,9.38
2023-12-13T16:16:16.577Z,9.43
2023-12-13T16:19:19.586Z,9.60
2023-12-13T16:22:22.637Z,8.40
2023-12-13T16:25:25.520Z,9.95
2023-12-13T16:28:28.543Z,9.23
2023-12-13T16:31:34.901Z,9.52
2023-12-13T16:34:37.813Z,10.27
2023-12-13T16:37:44.941Z,11.27
2023-12-13T16:40:48.248Z,10.20
2023-12-13T16:43:53.053Z,9.70
2023-12-13T16:46:56.513Z,9.82
2023-12-13T16:49:59.582Z,9.77
2023-12-13T16:53:02.601Z,9.85
2023-12-13T16:56:05.512Z,8.95
2023-12-13T16:59:08.786Z,8.30
2023-12-13T17:02:13.741Z,8.98
